sensor_id;sensor_type;location;lat;lon;timestamp;P1;durP1;ratioP1;P2;durP2;ratioP2
23304;SDS011;11821;51.456;8.844;2022-10-31T00:00:52;7.32;;;4.15;;
23304;SDS011;11821;51.456;8.844;2022-10-31T00:03:18;11.57;;;4.50;;
23304;SDS011;11821;51.456;8.844;2022-10-31T00:05:45;6.72;;;4.40;;
23304;SDS011;11821;51.456;8.844;2022-10-31T00:08:12;7.90;;;4.25;;
23304;SDS011;11821;51.456;8.844;2022-10-31T00:10:39;16.88;;;5.13;;
23304;SDS011;11821;51.456;8.844;2022-10-31T00:13:06;7.97;;;4.65;;
23304;SDS011;11821;51.456;8.844;2022-10-31T00:15:37;10.55;;;5.13;;
23304;SDS011;11821;51.456;8.844;2022-10-31T00:18:04;18.48;;;4.72;;
23304;SDS011;11821;51.456;8.844;2022-10-31T00:20:31;7.32;;;3.90;;
23304;SDS011;11821;51.456;8.844;2022-10-31T00:22:58;12.93;;;5.05;;
23304;SDS011;11821;51.456;8.844;2022-10-31T00:25:24;7.90;;;4.40;;
23304;SDS011;11821;51.456;8.844;2022-10-31T00:27:51;12.13;;;4.28;;
23304;SDS011;11821;51.456;8.844;2022-10-31T00:30:17;12.70;;;4.95;;
23304;SDS011;11821;51.456;8.844;2022-10-31T00:32:44;15.38;;;5.07;;
23304;SDS011;11821;51.456;8.844;2022-10-31T00:35:10;15.20;;;4.70;;
23304;SDS011;11821;51.456;8.844;2022-10-31T00:37:37;13.25;;;4.20;;
23304;SDS011;11821;51.456;8.844;2022-10-31T00:40:03;13.10;;;4.68;;
23304;SDS011;11821;51.456;8.844;2022-10-31T00:42:31;11.90;;;4.47;;
23304;SDS011;11821;51.456;8.844;2022-10-31T00:44:57;13.45;;;4.57;;
23304;SDS011;11821;51.456;8.844;2022-10-31T00:47:24;10.43;;;4.53;;
23304;SDS011;11821;51.456;8.844;2022-10-31T00:49:50;9.77;;;4.90;;
23304;SDS011;11821;51.456;8.844;2022-10-31T00:52:17;9.20;;;4.82;;
23304;SDS011;11821;51.456;8.844;2022-10-31T00:54:43;10.50;;;4.30;;
23304;SDS011;11821;51.456;8.844;2022-10-31T00:57:10;6.03;;;4.32;;
23304;SDS011;11821;51.456;8.844;2022-10-31T00:59:36;13.18;;;4.45;;
23304;SDS011;11821;51.456;8.844;2022-10-31T01:02:03;9.00;;;4.38;;
23304;SDS011;11821;51.456;8.844;2022-10-31T01:04:30;14.88;;;4.55;;
23304;SDS011;11821;51.456;8.844;2022-10-31T01:06:56;10.30;;;4.38;;
23304;SDS011;11821;51.456;8.844;2022-10-31T01:09:23;8.02;;;4.30;;
23304;SDS011;11821;51.456;8.844;2022-10-31T01:11:49;16.50;;;4.40;;
23304;SDS011;11821;51.456;8.844;2022-10-31T01:14:16;8.85;;;4.68;;
23304;SDS011;11821;51.456;8.844;2022-10-31T01:16:42;8.88;;;4.20;;
23304;SDS011;11821;51.456;8.844;2022-10-31T01:19:09;9.18;;;4.13;;
23304;SDS011;11821;51.456;8.844;2022-10-31T01:21:35;14.10;;;4.43;;
23304;SDS011;11821;51.456;8.844;2022-10-31T01:24:02;8.73;;;4.72;;
23304;SDS011;11821;51.456;8.844;2022-10-31T01:26:29;12.95;;;5.85;;
23304;SDS011;11821;51.456;8.844;2022-10-31T01:28:57;13.30;;;4.50;;
23304;SDS011;11821;51.456;8.844;2022-10-31T01:31:29;10.45;;;5.30;;
23304;SDS011;11821;51.456;8.844;2022-10-31T01:33:56;17.08;;;4.55;;
23304;SDS011;11821;51.456;8.844;2022-10-31T01:36:24;10.55;;;5.20;;
23304;SDS011;11821;51.456;8.844;2022-10-31T01:38:51;13.00;;;4.78;;
23304;SDS011;11821;51.456;8.844;2022-10-31T01:41:20;9.80;;;4.78;;
23304;SDS011;11821;51.456;8.844;2022-10-31T01:46:13;10.00;;;4.85;;
23304;SDS011;11821;51.456;8.844;2022-10-31T01:48:42;11.13;;;4.93;;
23304;SDS011;11821;51.456;8.844;2022-10-31T01:51:08;15.55;;;4.85;;
23304;SDS011;11821;51.456;8.844;2022-10-31T01:53:37;11.65;;;4.70;;
23304;SDS011;11821;51.456;8.844;2022-10-31T01:56:05;10.18;;;4.05;;
23304;SDS011;11821;51.456;8.844;2022-10-31T01:58:32;10.85;;;5.35;;
23304;SDS011;11821;51.456;8.844;2022-10-31T02:00:59;9.10;;;4.55;;
23304;SDS011;11821;51.456;8.844;2022-10-31T02:03:26;14.23;;;4.97;;
23304;SDS011;11821;51.456;8.844;2022-10-31T02:05:53;7.65;;;4.47;;
23304;SDS011;11821;51.456;8.844;2022-10-31T02:08:23;16.23;;;5.18;;
23304;SDS011;11821;51.456;8.844;2022-10-31T02:10:51;11.10;;;5.40;;
23304;SDS011;11821;51.456;8.844;2022-10-31T02:13:18;6.50;;;4.65;;
23304;SDS011;11821;51.456;8.844;2022-10-31T02:15:49;10.32;;;4.57;;
23304;SDS011;11821;51.456;8.844;2022-10-31T02:18:17;13.10;;;4.90;;
23304;SDS011;11821;51.456;8.844;2022-10-31T02:34:18;13.35;;;4.45;;
23304;SDS011;11821;51.456;8.844;2022-10-31T02:36:56;13.18;;;5.03;;
23304;SDS011;11821;51.456;8.844;2022-10-31T02:39:25;7.22;;;4.40;;
23304;SDS011;11821;51.456;8.844;2022-10-31T02:49:31;20.17;;;5.18;;
23304;SDS011;11821;51.456;8.844;2022-10-31T02:51:59;10.15;;;4.68;;
23304;SDS011;11821;51.456;8.844;2022-10-31T02:54:26;9.15;;;5.20;;
23304;SDS011;11821;51.456;8.844;2022-10-31T02:56:58;8.20;;;5.20;;
23304;SDS011;11821;51.456;8.844;2022-10-31T02:59:26;12.48;;;5.32;;
23304;SDS011;11821;51.456;8.844;2022-10-31T03:04:55;9.05;;;4.63;;
23304;SDS011;11821;51.456;8.844;2022-10-31T03:09:54;10.60;;;4.53;;
23304;SDS011;11821;51.456;8.844;2022-10-31T03:12:26;11.20;;;3.83;;
23304;SDS011;11821;51.456;8.844;2022-10-31T03:14:56;11.70;;;4.55;;
23304;SDS011;11821;51.456;8.844;2022-10-31T03:17:27;13.23;;;5.20;;
23304;SDS011;11821;51.456;8.844;2022-10-31T03:19:56;8.23;;;5.15;;
23304;SDS011;11821;51.456;8.844;2022-10-31T03:22:26;7.57;;;3.97;;
23304;SDS011;11821;51.456;8.844;2022-10-31T03:24:54;13.20;;;5.20;;
23304;SDS011;11821;51.456;8.844;2022-10-31T03:27:22;13.07;;;4.72;;
23304;SDS011;11821;51.456;8.844;2022-10-31T03:29:49;14.52;;;4.65;;
23304;SDS011;11821;51.456;8.844;2022-10-31T03:32:18;20.33;;;5.25;;
23304;SDS011;11821;51.456;8.844;2022-10-31T03:34:46;9.23;;;4.63;;
23304;SDS011;11821;51.456;8.844;2022-10-31T03:37:16;12.10;;;4.80;;
23304;SDS011;11821;51.456;8.844;2022-10-31T03:39:44;12.80;;;4.35;;
23304;SDS011;11821;51.456;8.844;2022-10-31T03:42:14;14.43;;;5.10;;
23304;SDS011;11821;51.456;8.844;2022-10-31T03:44:42;8.32;;;4.57;;
23304;SDS011;11821;51.456;8.844;2022-10-31T03:47:11;4.85;;;4.03;;
23304;SDS011;11821;51.456;8.844;2022-10-31T03:49:38;16.35;;;5.10;;
23304;SDS011;11821;51.456;8.844;2022-10-31T03:54:44;10.10;;;5.22;;
23304;SDS011;11821;51.456;8.844;2022-10-31T03:57:16;8.07;;;5.05;;
23304;SDS011;11821;51.456;8.844;2022-10-31T03:59:47;9.32;;;4.75;;
23304;SDS011;11821;51.456;8.844;2022-10-31T04:02:17;10.73;;;5.30;;
23304;SDS011;11821;51.456;8.844;2022-10-31T04:04:44;10.18;;;4.47;;
23304;SDS011;11821;51.456;8.844;2022-10-31T04:07:12;8.88;;;4.18;;
23304;SDS011;11821;51.456;8.844;2022-10-31T04:09:40;14.90;;;5.65;;
23304;SDS011;11821;51.456;8.844;2022-10-31T04:12:08;13.68;;;5.50;;
23304;SDS011;11821;51.456;8.844;2022-10-31T04:14:53;7.32;;;4.60;;
23304;SDS011;11821;51.456;8.844;2022-10-31T04:17:22;8.68;;;5.45;;
23304;SDS011;11821;51.456;8.844;2022-10-31T04:19:49;13.15;;;5.10;;
23304;SDS011;11821;51.456;8.844;2022-10-31T04:22:17;7.45;;;4.57;;
23304;SDS011;11821;51.456;8.844;2022-10-31T04:24:43;9.18;;;4.78;;
23304;SDS011;11821;51.456;8.844;2022-10-31T04:27:13;5.78;;;3.55;;
23304;SDS011;11821;51.456;8.844;2022-10-31T04:29:40;10.77;;;4.78;;
23304;SDS011;11821;51.456;8.844;2022-10-31T04:32:07;15.68;;;5.55;;
23304;SDS011;11821;51.456;8.844;2022-10-31T04:34:34;12.70;;;4.97;;
23304;SDS011;11821;51.456;8.844;2022-10-31T04:37:00;12.18;;;5.10;;
23304;SDS011;11821;51.456;8.844;2022-10-31T04:39:28;11.32;;;4.55;;
23304;SDS011;11821;51.456;8.844;2022-10-31T04:42:24;16.35;;;5.30;;
23304;SDS011;11821;51.456;8.844;2022-10-31T04:44:51;8.30;;;4.45;;
23304;SDS011;11821;51.456;8.844;2022-10-31T04:47:18;12.98;;;4.57;;
23304;SDS011;11821;51.456;8.844;2022-10-31T04:49:44;11.13;;;4.57;;
23304;SDS011;11821;51.456;8.844;2022-10-31T04:52:12;9.60;;;4.57;;
23304;SDS011;11821;51.456;8.844;2022-10-31T04:54:39;9.55;;;4.05;;
23304;SDS011;11821;51.456;8.844;2022-10-31T04:57:44;8.95;;;4.85;;
23304;SDS011;11821;51.456;8.844;2022-10-31T05:00:12;14.82;;;5.55;;
23304;SDS011;11821;51.456;8.844;2022-10-31T05:02:58;14.07;;;4.72;;
23304;SDS011;11821;51.456;8.844;2022-10-31T05:05:30;10.70;;;4.70;;
23304;SDS011;11821;51.456;8.844;2022-10-31T05:08:00;13.68;;;5.45;;
23304;SDS011;11821;51.456;8.844;2022-10-31T05:10:29;15.70;;;4.70;;
23304;SDS011;11821;51.456;8.844;2022-10-31T05:12:59;7.22;;;4.90;;
23304;SDS011;11821;51.456;8.844;2022-10-31T05:15:44;9.00;;;4.60;;
23304;SDS011;11821;51.456;8.844;2022-10-31T05:18:25;10.18;;;4.65;;
23304;SDS011;11821;51.456;8.844;2022-10-31T05:21:00;5.97;;;4.30;;
23304;SDS011;11821;51.456;8.844;2022-10-31T05:23:47;12.00;;;4.95;;
23304;SDS011;11821;51.456;8.844;2022-10-31T05:26:14;8.40;;;4.18;;
23304;SDS011;11821;51.456;8.844;2022-10-31T05:28:41;10.25;;;4.78;;
23304;SDS011;11821;51.456;8.844;2022-10-31T05:31:08;8.43;;;4.70;;
23304;SDS011;11821;51.456;8.844;2022-10-31T05:33:34;7.15;;;4.22;;
23304;SDS011;11821;51.456;8.844;2022-10-31T05:36:30;8.55;;;5.00;;
23304;SDS011;11821;51.456;8.844;2022-10-31T05:38:58;8.75;;;5.00;;
23304;SDS011;11821;51.456;8.844;2022-10-31T05:41:30;9.25;;;4.35;;
23304;SDS011;11821;51.456;8.844;2022-10-31T05:44:19;9.63;;;5.15;;
23304;SDS011;11821;51.456;8.844;2022-10-31T05:50:10;16.40;;;6.53;;
23304;SDS011;11821;51.456;8.844;2022-10-31T05:52:55;13.18;;;9.02;;
23304;SDS011;11821;51.456;8.844;2022-10-31T05:55:30;12.90;;;9.07;;
23304;SDS011;11821;51.456;8.844;2022-10-31T05:58:09;19.83;;;10.70;;
23304;SDS011;11821;51.456;8.844;2022-10-31T06:00:37;19.30;;;14.10;;
23304;SDS011;11821;51.456;8.844;2022-10-31T06:03:08;24.00;;;14.75;;
23304;SDS011;11821;51.456;8.844;2022-10-31T06:05:55;30.67;;;18.35;;
23304;SDS011;11821;51.456;8.844;2022-10-31T06:08:25;18.98;;;15.85;;
23304;SDS011;11821;51.456;8.844;2022-10-31T06:10:53;19.40;;;13.70;;
23304;SDS011;11821;51.456;8.844;2022-10-31T06:13:40;26.73;;;18.73;;
23304;SDS011;11821;51.456;8.844;2022-10-31T06:16:15;29.58;;;17.00;;
23304;SDS011;11821;51.456;8.844;2022-10-31T06:18:43;14.65;;;13.18;;
23304;SDS011;11821;51.456;8.844;2022-10-31T06:21:10;13.00;;;8.30;;
23304;SDS011;11821;51.456;8.844;2022-10-31T06:23:36;8.05;;;6.85;;
23304;SDS011;11821;51.456;8.844;2022-10-31T06:26:24;9.85;;;7.32;;
23304;SDS011;11821;51.456;8.844;2022-10-31T06:28:52;11.70;;;6.75;;
23304;SDS011;11821;51.456;8.844;2022-10-31T06:31:51;13.30;;;6.88;;
23304;SDS011;11821;51.456;8.844;2022-10-31T06:34:17;10.02;;;5.78;;
23304;SDS011;11821;51.456;8.844;2022-10-31T06:36:45;15.10;;;8.63;;
23304;SDS011;11821;51.456;8.844;2022-10-31T06:39:12;14.32;;;9.05;;
23304;SDS011;11821;51.456;8.844;2022-10-31T06:41:39;11.55;;;6.20;;
23304;SDS011;11821;51.456;8.844;2022-10-31T06:44:09;10.85;;;5.47;;
23304;SDS011;11821;51.456;8.844;2022-10-31T06:47:01;9.02;;;5.05;;
23304;SDS011;11821;51.456;8.844;2022-10-31T06:49:50;6.75;;;5.32;;
23304;SDS011;11821;51.456;8.844;2022-10-31T06:52:21;10.60;;;5.40;;
23304;SDS011;11821;51.456;8.844;2022-10-31T06:54:49;9.10;;;5.30;;
23304;SDS011;11821;51.456;8.844;2022-10-31T06:57:16;17.48;;;6.72;;
23304;SDS011;11821;51.456;8.844;2022-10-31T06:59:43;15.32;;;9.88;;
23304;SDS011;11821;51.456;8.844;2022-10-31T07:02:14;26.23;;;16.27;;
23304;SDS011;11821;51.456;8.844;2022-10-31T07:04:42;12.88;;;10.30;;
23304;SDS011;11821;51.456;8.844;2022-10-31T07:07:12;13.38;;;8.43;;
23304;SDS011;11821;51.456;8.844;2022-10-31T07:09:39;15.82;;;8.02;;
23304;SDS011;11821;51.456;8.844;2022-10-31T07:12:07;24.25;;;14.30;;
23304;SDS011;11821;51.456;8.844;2022-10-31T07:14:37;9.25;;;5.05;;
23304;SDS011;11821;51.456;8.844;2022-10-31T07:17:04;8.80;;;7.10;;
23304;SDS011;11821;51.456;8.844;2022-10-31T07:19:34;15.20;;;8.73;;
23304;SDS011;11821;51.456;8.844;2022-10-31T07:22:02;16.70;;;11.23;;
23304;SDS011;11821;51.456;8.844;2022-10-31T07:24:29;16.27;;;9.15;;
23304;SDS011;11821;51.456;8.844;2022-10-31T07:27:14;14.18;;;7.72;;
23304;SDS011;11821;51.456;8.844;2022-10-31T07:29:41;13.07;;;7.28;;
23304;SDS011;11821;51.456;8.844;2022-10-31T07:32:08;16.23;;;8.80;;
23304;SDS011;11821;51.456;8.844;2022-10-31T07:34:39;10.85;;;7.97;;
23304;SDS011;11821;51.456;8.844;2022-10-31T07:37:16;12.60;;;7.30;;
23304;SDS011;11821;51.456;8.844;2022-10-31T07:39:43;14.60;;;7.45;;
23304;SDS011;11821;51.456;8.844;2022-10-31T07:42:10;13.70;;;9.75;;
23304;SDS011;11821;51.456;8.844;2022-10-31T07:44:42;13.05;;;10.30;;
23304;SDS011;11821;51.456;8.844;2022-10-31T07:47:27;13.32;;;11.10;;
23304;SDS011;11821;51.456;8.844;2022-10-31T07:50:16;27.33;;;15.25;;
23304;SDS011;11821;51.456;8.844;2022-10-31T07:53:02;30.45;;;18.17;;
23304;SDS011;11821;51.456;8.844;2022-10-31T07:55:37;34.17;;;17.85;;
23304;SDS011;11821;51.456;8.844;2022-10-31T07:58:07;32.40;;;17.55;;
23304;SDS011;11821;51.456;8.844;2022-10-31T08:00:37;24.92;;;12.40;;
23304;SDS011;11821;51.456;8.844;2022-10-31T08:03:08;17.95;;;11.68;;
23304;SDS011;11821;51.456;8.844;2022-10-31T08:05:56;20.20;;;11.80;;
23304;SDS011;11821;51.456;8.844;2022-10-31T08:08:41;43.47;;;18.30;;
23304;SDS011;11821;51.456;8.844;2022-10-31T08:11:08;20.05;;;11.05;;
23304;SDS011;11821;51.456;8.844;2022-10-31T08:13:35;18.33;;;9.43;;
23304;SDS011;11821;51.456;8.844;2022-10-31T08:16:02;23.10;;;10.35;;
23304;SDS011;11821;51.456;8.844;2022-10-31T08:18:31;32.15;;;14.07;;
23304;SDS011;11821;51.456;8.844;2022-10-31T08:20:58;41.80;;;22.80;;
23304;SDS011;11821;51.456;8.844;2022-10-31T08:23:24;21.23;;;9.90;;
23304;SDS011;11821;51.456;8.844;2022-10-31T08:25:53;15.98;;;10.05;;
23304;SDS011;11821;51.456;8.844;2022-10-31T08:28:20;15.75;;;9.88;;
23304;SDS011;11821;51.456;8.844;2022-10-31T08:30:49;23.88;;;11.35;;
23304;SDS011;11821;51.456;8.844;2022-10-31T08:33:34;25.05;;;13.80;;
23304;SDS011;11821;51.456;8.844;2022-10-31T08:36:19;21.30;;;13.32;;
23304;SDS011;11821;51.456;8.844;2022-10-31T08:38:58;26.50;;;12.35;;
23304;SDS011;11821;51.456;8.844;2022-10-31T08:41:26;20.13;;;12.00;;
23304;SDS011;11821;51.456;8.844;2022-10-31T08:43:53;20.45;;;11.10;;
23304;SDS011;11821;51.456;8.844;2022-10-31T08:46:20;57.72;;;25.80;;
23304;SDS011;11821;51.456;8.844;2022-10-31T08:48:47;31.65;;;15.68;;
23304;SDS011;11821;51.456;8.844;2022-10-31T08:51:15;88.72;;;41.65;;
23304;SDS011;11821;51.456;8.844;2022-10-31T08:53:41;20.33;;;11.30;;
23304;SDS011;11821;51.456;8.844;2022-10-31T08:56:30;17.27;;;10.82;;
23304;SDS011;11821;51.456;8.844;2022-10-31T08:58:58;30.33;;;17.20;;
23304;SDS011;11821;51.456;8.844;2022-10-31T09:01:36;21.70;;;11.68;;
23304;SDS011;11821;51.456;8.844;2022-10-31T09:04:05;22.13;;;12.40;;
23304;SDS011;11821;51.456;8.844;2022-10-31T09:06:31;21.35;;;13.90;;
23304;SDS011;11821;51.456;8.844;2022-10-31T09:08:59;25.17;;;12.90;;
23304;SDS011;11821;51.456;8.844;2022-10-31T09:11:25;25.15;;;11.65;;
23304;SDS011;11821;51.456;8.844;2022-10-31T09:14:10;22.58;;;12.70;;
23304;SDS011;11821;51.456;8.844;2022-10-31T09:16:36;24.77;;;12.95;;
23304;SDS011;11821;51.456;8.844;2022-10-31T09:19:05;18.25;;;9.85;;
23304;SDS011;11821;51.456;8.844;2022-10-31T09:21:31;22.80;;;11.02;;
23304;SDS011;11821;51.456;8.844;2022-10-31T09:23:58;25.33;;;10.35;;
23304;SDS011;11821;51.456;8.844;2022-10-31T09:26:24;25.25;;;13.02;;
23304;SDS011;11821;51.456;8.844;2022-10-31T09:29:09;30.08;;;15.50;;
23304;SDS011;11821;51.456;8.844;2022-10-31T09:31:36;26.88;;;13.70;;
23304;SDS011;11821;51.456;8.844;2022-10-31T09:34:07;31.83;;;14.35;;
23304;SDS011;11821;51.456;8.844;2022-10-31T09:36:37;30.90;;;15.63;;
23304;SDS011;11821;51.456;8.844;2022-10-31T09:39:07;32.15;;;14.68;;
23304;SDS011;11821;51.456;8.844;2022-10-31T09:57:19;43.80;;;18.27;;
23304;SDS011;11821;51.456;8.844;2022-10-31T09:59:53;44.25;;;18.83;;
23304;SDS011;11821;51.456;8.844;2022-10-31T10:02:39;38.72;;;18.52;;
23304;SDS011;11821;51.456;8.844;2022-10-31T10:05:11;39.60;;;18.40;;
23304;SDS011;11821;51.456;8.844;2022-10-31T10:10:31;40.33;;;19.40;;
23304;SDS011;11821;51.456;8.844;2022-10-31T10:21:59;42.05;;;22.65;;
23304;SDS011;11821;51.456;8.844;2022-10-31T10:30:41;36.03;;;20.70;;
23304;SDS011;11821;51.456;8.844;2022-10-31T10:33:30;38.45;;;22.77;;
23304;SDS011;11821;51.456;8.844;2022-10-31T10:36:08;38.70;;;23.55;;
23304;SDS011;11821;51.456;8.844;2022-10-31T10:38:57;37.45;;;23.33;;
23304;SDS011;11821;51.456;8.844;2022-10-31T10:41:27;38.53;;;23.13;;
23304;SDS011;11821;51.456;8.844;2022-10-31T10:43:58;39.45;;;24.42;;
23304;SDS011;11821;51.456;8.844;2022-10-31T10:46:34;33.83;;;22.20;;
23304;SDS011;11821;51.456;8.844;2022-10-31T10:49:50;41.28;;;25.10;;
23304;SDS011;11821;51.456;8.844;2022-10-31T10:55:04;33.30;;;22.63;;
23304;SDS011;11821;51.456;8.844;2022-10-31T10:57:58;30.77;;;20.10;;
23304;SDS011;11821;51.456;8.844;2022-10-31T11:03:03;34.08;;;22.75;;
23304;SDS011;11821;51.456;8.844;2022-10-31T11:08:00;31.33;;;21.83;;
23304;SDS011;11821;51.456;8.844;2022-10-31T11:10:26;33.10;;;22.20;;
23304;SDS011;11821;51.456;8.844;2022-10-31T11:13:06;36.85;;;22.08;;
23304;SDS011;11821;51.456;8.844;2022-10-31T11:15:36;29.80;;;21.90;;
23304;SDS011;11821;51.456;8.844;2022-10-31T11:18:20;33.42;;;20.92;;
23304;SDS011;11821;51.456;8.844;2022-10-31T11:20:52;28.35;;;19.90;;
23304;SDS011;11821;51.456;8.844;2022-10-31T11:23:23;31.45;;;21.60;;
23304;SDS011;11821;51.456;8.844;2022-10-31T11:25:56;29.25;;;21.33;;
23304;SDS011;11821;51.456;8.844;2022-10-31T11:28:43;30.95;;;20.77;;
23304;SDS011;11821;51.456;8.844;2022-10-31T11:31:12;32.63;;;20.73;;
23304;SDS011;11821;51.456;8.844;2022-10-31T11:36:16;33.60;;;20.23;;
23304;SDS011;11821;51.456;8.844;2022-10-31T11:38:49;27.15;;;19.67;;
23304;SDS011;11821;51.456;8.844;2022-10-31T11:43:58;30.42;;;20.65;;
23304;SDS011;11821;51.456;8.844;2022-10-31T11:52:06;34.67;;;20.65;;
23304;SDS011;11821;51.456;8.844;2022-10-31T11:59:52;28.10;;;18.60;;
23304;SDS011;11821;51.456;8.844;2022-10-31T12:02:20;37.83;;;19.58;;
23304;SDS011;11821;51.456;8.844;2022-10-31T12:04:49;24.13;;;16.88;;
23304;SDS011;11821;51.456;8.844;2022-10-31T12:07:37;28.33;;;18.75;;
23304;SDS011;11821;51.456;8.844;2022-10-31T12:10:10;29.92;;;19.63;;
23304;SDS011;11821;51.456;8.844;2022-10-31T12:13:24;26.48;;;18.15;;
23304;SDS011;11821;51.456;8.844;2022-10-31T12:15:36;29.25;;;18.90;;
23304;SDS011;11821;51.456;8.844;2022-10-31T12:23:42;35.05;;;20.13;;
23304;SDS011;11821;51.456;8.844;2022-10-31T12:53:59;26.40;;;16.75;;
23304;SDS011;11821;51.456;8.844;2022-10-31T12:59:24;25.08;;;16.20;;
23304;SDS011;11821;51.456;8.844;2022-10-31T13:01:55;25.55;;;17.40;;
23304;SDS011;11821;51.456;8.844;2022-10-31T13:05:05;34.08;;;16.98;;
23304;SDS011;11821;51.456;8.844;2022-10-31T13:07:43;27.75;;;17.30;;
23304;SDS011;11821;51.456;8.844;2022-10-31T13:10:16;31.42;;;18.05;;
23304;SDS011;11821;51.456;8.844;2022-10-31T13:13:24;26.02;;;17.90;;
23304;SDS011;11821;51.456;8.844;2022-10-31T13:16:00;22.77;;;17.08;;
23304;SDS011;11821;51.456;8.844;2022-10-31T13:21:28;28.90;;;17.00;;
23304;SDS011;11821;51.456;8.844;2022-10-31T13:24:02;27.40;;;17.27;;
23304;SDS011;11821;51.456;8.844;2022-10-31T13:31:56;22.13;;;16.40;;
23304;SDS011;11821;51.456;8.844;2022-10-31T13:39:59;24.30;;;16.00;;
23304;SDS011;11821;51.456;8.844;2022-10-31T13:42:54;26.95;;;16.33;;
23304;SDS011;11821;51.456;8.844;2022-10-31T13:45:22;27.15;;;16.40;;
23304;SDS011;11821;51.456;8.844;2022-10-31T13:50:41;26.77;;;16.17;;
23304;SDS011;11821;51.456;8.844;2022-10-31T13:53:10;24.73;;;14.95;;
23304;SDS011;11821;51.456;8.844;2022-10-31T13:55:44;25.50;;;15.13;;
23304;SDS011;11821;51.456;8.844;2022-10-31T13:58:29;22.10;;;15.55;;
23304;SDS011;11821;51.456;8.844;2022-10-31T14:00:59;21.23;;;15.00;;
23304;SDS011;11821;51.456;8.844;2022-10-31T14:03:33;21.25;;;13.98;;
23304;SDS011;11821;51.456;8.844;2022-10-31T14:06:03;20.88;;;14.10;;
23304;SDS011;11821;51.456;8.844;2022-10-31T14:08:32;20.02;;;13.52;;
23304;SDS011;11821;51.456;8.844;2022-10-31T14:11:00;23.05;;;13.20;;
23304;SDS011;11821;51.456;8.844;2022-10-31T14:16:29;21.00;;;10.10;;
23304;SDS011;11821;51.456;8.844;2022-10-31T14:19:01;14.48;;;11.02;;
23304;SDS011;11821;51.456;8.844;2022-10-31T14:21:42;16.02;;;11.38;;
23304;SDS011;11821;51.456;8.844;2022-10-31T14:24:30;16.05;;;10.95;;
23304;SDS011;11821;51.456;8.844;2022-10-31T14:27:03;15.23;;;10.93;;
23304;SDS011;11821;51.456;8.844;2022-10-31T14:29:50;22.75;;;11.75;;
23304;SDS011;11821;51.456;8.844;2022-10-31T14:32:21;14.13;;;10.38;;
23304;SDS011;11821;51.456;8.844;2022-10-31T14:51:36;14.43;;;9.80;;
23304;SDS011;11821;51.456;8.844;2022-10-31T14:54:26;16.55;;;11.13;;
23304;SDS011;11821;51.456;8.844;2022-10-31T14:56:57;15.65;;;10.13;;
23304;SDS011;11821;51.456;8.844;2022-10-31T14:59:28;17.02;;;11.15;;
23304;SDS011;11821;51.456;8.844;2022-10-31T15:02:00;19.70;;;13.95;;
23304;SDS011;11821;51.456;8.844;2022-10-31T15:04:35;22.73;;;12.18;;
23304;SDS011;11821;51.456;8.844;2022-10-31T15:07:05;19.85;;;13.40;;
23304;SDS011;11821;51.456;8.844;2022-10-31T15:09:44;22.63;;;12.20;;
23304;SDS011;11821;51.456;8.844;2022-10-31T15:14:56;17.08;;;11.75;;
23304;SDS011;11821;51.456;8.844;2022-10-31T15:17:27;30.48;;;9.88;;
23304;SDS011;11821;51.456;8.844;2022-10-31T15:19:53;14.73;;;9.73;;
23304;SDS011;11821;51.456;8.844;2022-10-31T15:22:22;12.90;;;9.57;;
23304;SDS011;11821;51.456;8.844;2022-10-31T15:24:51;14.07;;;9.90;;
23304;SDS011;11821;51.456;8.844;2022-10-31T15:27:21;18.02;;;12.82;;
23304;SDS011;11821;51.456;8.844;2022-10-31T15:29:53;21.17;;;13.20;;
23304;SDS011;11821;51.456;8.844;2022-10-31T15:34:48;20.33;;;12.65;;
23304;SDS011;11821;51.456;8.844;2022-10-31T15:37:25;12.98;;;11.65;;
23304;SDS011;11821;51.456;8.844;2022-10-31T15:39:52;19.67;;;12.77;;
23304;SDS011;11821;51.456;8.844;2022-10-31T15:42:27;18.08;;;10.95;;
23304;SDS011;11821;51.456;8.844;2022-10-31T15:47:30;19.20;;;11.25;;
23304;SDS011;11821;51.456;8.844;2022-10-31T15:49:58;16.92;;;11.02;;
23304;SDS011;11821;51.456;8.844;2022-10-31T15:52:28;18.75;;;10.68;;
23304;SDS011;11821;51.456;8.844;2022-10-31T15:55:05;21.38;;;12.38;;
23304;SDS011;11821;51.456;8.844;2022-10-31T15:57:42;34.90;;;14.52;;
23304;SDS011;11821;51.456;8.844;2022-10-31T16:03:02;18.77;;;11.07;;
23304;SDS011;11821;51.456;8.844;2022-10-31T16:05:43;20.02;;;11.70;;
23304;SDS011;11821;51.456;8.844;2022-10-31T16:13:33;27.95;;;14.50;;
23304;SDS011;11821;51.456;8.844;2022-10-31T16:16:11;21.70;;;13.20;;
23304;SDS011;11821;51.456;8.844;2022-10-31T16:18:39;19.40;;;12.90;;
23304;SDS011;11821;51.456;8.844;2022-10-31T16:21:07;18.15;;;11.48;;
23304;SDS011;11821;51.456;8.844;2022-10-31T16:23:34;17.67;;;12.20;;
23304;SDS011;11821;51.456;8.844;2022-10-31T16:26:05;21.23;;;11.57;;
23304;SDS011;11821;51.456;8.844;2022-10-31T16:28:32;16.92;;;12.60;;
23304;SDS011;11821;51.456;8.844;2022-10-31T16:30:59;18.45;;;14.05;;
23304;SDS011;11821;51.456;8.844;2022-10-31T16:38:56;27.27;;;15.73;;
23304;SDS011;11821;51.456;8.844;2022-10-31T16:41:23;37.75;;;21.20;;
23304;SDS011;11821;51.456;8.844;2022-10-31T16:43:51;30.30;;;20.00;;
23304;SDS011;11821;51.456;8.844;2022-10-31T16:46:20;35.00;;;22.40;;
23304;SDS011;11821;51.456;8.844;2022-10-31T16:48:48;46.88;;;28.90;;
23304;SDS011;11821;51.456;8.844;2022-10-31T16:51:15;40.85;;;26.73;;
23304;SDS011;11821;51.456;8.844;2022-10-31T16:53:42;30.33;;;23.52;;
23304;SDS011;11821;51.456;8.844;2022-10-31T16:56:13;29.38;;;23.50;;
23304;SDS011;11821;51.456;8.844;2022-10-31T16:58:42;37.25;;;24.48;;
23304;SDS011;11821;51.456;8.844;2022-10-31T17:01:09;20.33;;;16.35;;
23304;SDS011;11821;51.456;8.844;2022-10-31T17:03:38;26.65;;;16.13;;
23304;SDS011;11821;51.456;8.844;2022-10-31T17:06:04;33.40;;;18.67;;
23304;SDS011;11821;51.456;8.844;2022-10-31T17:08:30;25.83;;;18.00;;
23304;SDS011;11821;51.456;8.844;2022-10-31T17:10:58;33.58;;;20.77;;
23304;SDS011;11821;51.456;8.844;2022-10-31T17:13:26;39.97;;;25.10;;
23304;SDS011;11821;51.456;8.844;2022-10-31T17:15:56;46.30;;;27.50;;
23304;SDS011;11821;51.456;8.844;2022-10-31T17:18:24;53.10;;;29.50;;
23304;SDS011;11821;51.456;8.844;2022-10-31T17:20:54;42.67;;;28.55;;
23304;SDS011;11821;51.456;8.844;2022-10-31T17:23:23;44.15;;;27.33;;
23304;SDS011;11821;51.456;8.844;2022-10-31T17:25:50;31.40;;;21.65;;
23304;SDS011;11821;51.456;8.844;2022-10-31T17:28:17;32.15;;;21.15;;
23304;SDS011;11821;51.456;8.844;2022-10-31T17:30:43;33.85;;;20.30;;
23304;SDS011;11821;51.456;8.844;2022-10-31T17:33:13;31.20;;;21.70;;
23304;SDS011;11821;51.456;8.844;2022-10-31T17:35:41;24.45;;;17.45;;
23304;SDS011;11821;51.456;8.844;2022-10-31T17:38:07;33.75;;;18.58;;
23304;SDS011;11821;51.456;8.844;2022-10-31T17:40:35;38.13;;;21.95;;
23304;SDS011;11821;51.456;8.844;2022-10-31T17:43:02;35.85;;;20.70;;
23304;SDS011;11821;51.456;8.844;2022-10-31T17:45:28;36.25;;;18.75;;
23304;SDS011;11821;51.456;8.844;2022-10-31T17:47:55;30.02;;;18.52;;
23304;SDS011;11821;51.456;8.844;2022-10-31T17:50:22;27.08;;;17.50;;
23304;SDS011;11821;51.456;8.844;2022-10-31T17:52:50;30.27;;;19.00;;
23304;SDS011;11821;51.456;8.844;2022-10-31T17:55:17;30.88;;;17.88;;
23304;SDS011;11821;51.456;8.844;2022-10-31T17:57:43;27.38;;;18.92;;
23304;SDS011;11821;51.456;8.844;2022-10-31T18:00:11;28.98;;;20.30;;
23304;SDS011;11821;51.456;8.844;2022-10-31T18:02:39;20.17;;;13.23;;